createdAt,value
2023-05-04T00:01:26.453Z,100260.33
2023-05-04T00:03:54.662Z,100260.66
2023-05-04T00:06:21.882Z,100260.57
2023-05-04T00:08:48.559Z,100256.65
2023-05-04T00:11:15.252Z,100259.04
2023-05-04T00:13:41.950Z,100262.36
2023-05-04T00:16:10.876Z,100258.80
2023-05-04T00:18:38.892Z,100260.10
2023-05-04T00:21:06.561Z,100262.69
2023-05-04T00:23:34.196Z,100266.08
2023-05-04T00:26:01.303Z,100265.25
2023-05-04T00:28:27.996Z,100263.63
2023-05-04T00:30:55.200Z,100264.41
2023-05-04T00:33:22.232Z,100263.04
2023-05-04T00:35:48.911Z,100262.89
2023-05-04T00:38:16.902Z,100264.45
2023-05-04T00:40:43.618Z,100265.83
2023-05-04T00:43:11.457Z,100262.77
2023-05-04T00:45:38.380Z,100259.80
2023-05-04T00:48:06.333Z,100251.66
2023-05-04T00:50:33.178Z,100250.91
2023-05-04T00:53:00.822Z,100252.29
2023-05-04T00:55:27.527Z,100253.52
2023-05-04T00:57:55.421Z,100256.23
2023-05-04T01:00:22.588Z,100257.41
2023-05-04T01:02:50.202Z,100258.37
2023-05-04T01:05:16.986Z,100255.79
2023-05-04T01:08:04.435Z,100257.40
2023-05-04T01:10:43.643Z,100260.50
2023-05-04T01:13:17.283Z,100262.16
2023-05-04T01:15:44.132Z,100254.41
2023-05-04T01:18:11.214Z,100248.52
2023-05-04T01:20:38.045Z,100247.02
2023-05-04T01:23:04.737Z,100245.29
2023-05-04T01:25:35.983Z,100244.27
2023-05-04T01:28:12.588Z,100244.27
2023-05-04T01:30:41.095Z,100237.52
2023-05-04T01:33:07.866Z,100236.49
2023-05-04T01:35:36.399Z,100231.44
2023-05-04T01:38:03.256Z,100233.05
2023-05-04T01:40:29.960Z,100229.70
2023-05-04T01:42:56.696Z,100228.25
2023-05-04T01:45:23.477Z,100228.30
2023-05-04T01:47:50.272Z,100230.36
2023-05-04T01:50:17.179Z,100228.09
2023-05-04T01:52:43.912Z,100232.61
2023-05-04T01:55:11.174Z,100235.52
2023-05-04T01:57:37.956Z,100230.77
2023-05-04T02:00:05.396Z,100224.52
2023-05-04T02:02:42.693Z,100225.25
2023-05-04T02:05:09.726Z,100226.13
2023-05-04T02:07:36.438Z,100227.33
2023-05-04T02:10:04.151Z,100227.34
2023-05-04T02:12:31.119Z,100223.73
2023-05-04T02:14:58.646Z,100218.28
2023-05-04T02:17:25.357Z,100210.77
2023-05-04T02:19:52.166Z,100213.51
2023-05-04T02:22:19.312Z,100213.36
2023-05-04T02:24:46.105Z,100213.31
2023-05-04T02:27:12.761Z,100224.05
2023-05-04T02:29:39.437Z,100235.05
2023-05-04T02:32:07.866Z,100237.56
2023-05-04T02:34:35.473Z,100238.65
2023-05-04T02:37:02.169Z,100236.28
2023-05-04T02:39:28.817Z,100230.54
2023-05-04T02:41:55.488Z,100224.27
2023-05-04T02:44:22.175Z,100228.71
2023-05-04T02:46:48.825Z,100226.33
2023-05-04T02:49:15.530Z,100222.13
2023-05-04T02:51:42.273Z,100218.02
2023-05-04T02:54:08.936Z,100224.66
2023-05-04T02:56:35.689Z,100222.98
2023-05-04T02:59:02.452Z,100216.59
2023-05-04T03:01:29.348Z,100212.57
2023-05-04T03:03:56.097Z,100208.84
2023-05-04T03:06:22.831Z,100207.14
2023-05-04T03:08:49.480Z,100206.42
2023-05-04T03:11:16.585Z,100206.30
2023-05-04T03:13:43.554Z,100204.76
2023-05-04T03:16:12.336Z,100198.37
2023-05-04T03:18:39.176Z,100194.63
2023-05-04T03:21:06.204Z,100197.05
2023-05-04T03:23:33.331Z,100193.38
2023-05-04T03:26:00.038Z,100184.98
2023-05-04T03:28:26.950Z,100176.66
2023-05-04T03:30:53.839Z,100178.28
2023-05-04T03:33:20.927Z,100178.31
2023-05-04T03:35:47.725Z,100180.48
2023-05-04T03:38:14.404Z,100179.08
2023-05-04T03:40:43.512Z,100183.42
2023-05-04T03:43:11.419Z,100186.25
2023-05-04T03:45:38.115Z,100193.14
2023-05-04T03:48:05.445Z,100197.14
2023-05-04T03:50:32.485Z,100197.89
2023-05-04T03:52:59.124Z,100194.85
2023-05-04T03:55:26.496Z,100195.54
2023-05-04T03:57:53.309Z,100195.36
2023-05-04T04:00:20.436Z,100198.02
2023-05-04T04:02:52.271Z,100197.55
2023-05-04T04:05:19.529Z,100199.31
2023-05-04T04:07:46.999Z,100193.41
2023-05-04T04:10:13.686Z,100185.27
2023-05-04T04:12:40.406Z,100188.80
2023-05-04T04:15:07.873Z,100197.11
2023-05-04T04:17:34.602Z,100195.59
2023-05-04T04:20:01.273Z,100199.52
2023-05-04T04:22:27.910Z,100201.13
2023-05-04T04:24:54.591Z,100197.63
2023-05-04T04:27:21.379Z,100195.06
2023-05-04T04:29:48.059Z,100193.61
2023-05-04T04:32:15.784Z,100191.46
2023-05-04T04:34:42.446Z,100186.96
2023-05-04T04:37:09.176Z,100187.25
2023-05-04T04:39:36.043Z,100182.64
2023-05-04T04:42:02.778Z,100190.05
2023-05-04T04:44:29.835Z,100194.77
2023-05-04T04:46:56.732Z,100192.80
2023-05-04T04:49:23.563Z,100190.36
2023-05-04T04:51:50.536Z,100186.87
2023-05-04T04:54:17.190Z,100189.08
2023-05-04T04:56:45.014Z,100190.91
2023-05-04T04:59:12.874Z,100196.09
2023-05-04T05:01:40.017Z,100192.09
2023-05-04T05:04:06.747Z,100189.65
2023-05-04T05:06:33.658Z,100185.16
2023-05-04T05:09:00.455Z,100185.05
2023-05-04T05:11:27.122Z,100188.41
2023-05-04T05:13:53.781Z,100187.23
2023-05-04T05:16:20.549Z,100181.16
2023-05-04T05:18:47.941Z,100182.89
2023-05-04T05:21:14.610Z,100186.40
2023-05-04T05:23:41.453Z,100187.89
2023-05-04T05:26:08.124Z,100187.70
2023-05-04T05:28:34.840Z,100183.81
2023-05-04T05:31:01.638Z,100182.36
2023-05-04T05:33:28.425Z,100182.61
2023-05-04T05:35:55.112Z,100180.67
2023-05-04T05:38:21.793Z,100177.33
2023-05-04T05:40:49.378Z,100184.40
2023-05-04T05:43:16.324Z,100185.09
2023-05-04T05:45:43.222Z,100183.68
2023-05-04T05:48:10.381Z,100176.03
2023-05-04T05:50:37.243Z,100172.64
2023-05-04T05:53:03.988Z,100166.82
2023-05-04T05:55:30.647Z,100163.09
2023-05-04T05:57:57.369Z,100159.95
2023-05-04T06:00:24.745Z,100163.76
2023-05-04T06:02:51.895Z,100162.58
2023-05-04T06:05:18.785Z,100155.01
2023-05-04T06:07:45.556Z,100156.71
2023-05-04T06:10:12.252Z,100156.27
2023-05-04T06:12:39.016Z,100156.39
2023-05-04T06:15:06.681Z,100154.91
2023-05-04T06:17:33.790Z,100152.79
2023-05-04T06:20:00.603Z,100150.48
2023-05-04T06:22:27.755Z,100142.46
2023-05-04T06:24:59.014Z,100135.38
2023-05-04T06:27:31.689Z,100132.04
2023-05-04T06:29:58.436Z,100127.89
2023-05-04T06:32:25.181Z,100120.88
2023-05-04T06:34:55.754Z,100126.55
2023-05-04T06:37:22.706Z,100129.25
2023-05-04T06:39:49.503Z,100126.48
2023-05-04T06:42:16.249Z,100119.13
2023-05-04T06:44:42.995Z,100118.40
2023-05-04T06:47:09.749Z,100121.85
2023-05-04T06:49:36.597Z,100113.77
2023-05-04T06:52:03.283Z,100117.80
2023-05-04T06:54:30.062Z,100115.34
2023-05-04T06:56:56.838Z,100118.29
2023-05-04T06:59:23.575Z,100115.73
2023-05-04T07:01:50.261Z,100117.14
2023-05-04T07:04:17.269Z,100113.15
2023-05-04T07:06:44.123Z,100114.30
2023-05-04T07:09:11.071Z,100113.70
2023-05-04T07:11:37.834Z,100115.70
2023-05-04T07:14:04.567Z,100115.10
2023-05-04T07:16:33.109Z,100118.12
2023-05-04T07:18:59.854Z,100121.11
2023-05-04T07:21:28.914Z,100119.06
2023-05-04T07:23:56.336Z,100112.89
2023-05-04T07:26:23.232Z,100113.38
2023-05-04T07:28:50.041Z,100111.27
2023-05-04T07:31:16.777Z,100114.73
2023-05-04T07:33:43.554Z,100116.58
2023-05-04T07:36:10.499Z,100117.84
2023-05-04T07:38:37.248Z,100119.48
2023-05-04T07:41:04.200Z,100118.48
2023-05-04T07:43:30.915Z,100117.72
2023-05-04T07:45:57.735Z,100120.98
2023-05-04T07:48:26.365Z,100113.90
2023-05-04T07:50:53.950Z,100111.24
2023-05-04T07:53:20.987Z,100104.84
2023-05-04T07:55:48.406Z,100103.58
2023-05-04T07:58:16.703Z,100097.67
2023-05-04T08:00:43.575Z,100091.33
2023-05-04T08:03:10.414Z,100093.36
2023-05-04T08:05:37.240Z,100085.92
2023-05-04T08:08:04.144Z,100083.73
2023-05-04T08:10:30.990Z,100084.36
2023-05-04T08:12:57.967Z,100076.80
2023-05-04T08:15:24.689Z,100075.52
2023-05-04T08:17:51.780Z,100071.52
2023-05-04T08:20:18.615Z,100073.66
2023-05-04T08:22:45.738Z,100067.98
2023-05-04T08:25:12.697Z,100061.23
2023-05-04T08:27:39.541Z,100061.39
2023-05-04T08:30:07.207Z,100059.84
2023-05-04T08:32:34.012Z,100061.59
2023-05-04T08:35:00.993Z,100060.05
2023-05-04T08:37:27.656Z,100058.70
2023-05-04T08:39:54.438Z,100056.48
2023-05-04T08:42:31.692Z,100055.25
2023-05-04T08:44:58.705Z,100052.44
2023-05-04T08:47:25.911Z,100050.72
2023-05-04T08:49:54.286Z,100054.39
2023-05-04T08:52:24.728Z,100049.64
2023-05-04T08:54:55.781Z,100052.20
2023-05-04T08:57:26.212Z,100050.84
2023-05-04T08:59:54.561Z,100047.08
2023-05-04T09:02:24.601Z,100045.35
2023-05-04T09:04:52.842Z,100051.55
2023-05-04T09:07:20.651Z,100053.31
2023-05-04T09:09:48.483Z,100046.86
2023-05-04T09:12:15.194Z,100043.01
2023-05-04T09:14:41.844Z,100034.05
2023-05-04T09:17:25.650Z,100034.89
2023-05-04T09:20:00.213Z,100031.11
2023-05-04T09:22:28.879Z,100026.13
2023-05-04T09:25:12.655Z,100020.71
2023-05-04T09:27:41.485Z,100020.44
2023-05-04T09:30:09.204Z,100018.20
2023-05-04T09:32:46.766Z,100012.85
2023-05-04T09:35:25.309Z,100011.28
2023-05-04T09:37:59.170Z,100015.49
2023-05-04T09:40:36.658Z,100012.59
2023-05-04T09:43:03.591Z,100008.77
2023-05-04T09:45:40.287Z,100006.14
2023-05-04T09:48:20.885Z,100004.02
2023-05-04T09:50:49.680Z,99997.71
2023-05-04T09:53:16.422Z,99999.84
2023-05-04T09:55:43.246Z,100000.83
2023-05-04T09:58:10.077Z,99996.31
2023-05-04T10:00:36.753Z,99995.09
2023-05-04T10:03:03.613Z,99991.05
2023-05-04T10:05:30.377Z,99989.41
2023-05-04T10:07:59.609Z,99989.48
2023-05-04T10:10:27.162Z,99983.13
2023-05-04T10:12:54.147Z,99984.00
2023-05-04T10:15:20.884Z,99980.91
2023-05-04T10:18:22.844Z,99976.43
2023-05-04T10:21:02.011Z,99976.95
2023-05-04T10:23:53.824Z,99981.86
2023-05-04T10:26:24.175Z,99977.35
2023-05-04T10:28:50.908Z,99969.36
2023-05-04T10:31:18.291Z,99971.10
2023-05-04T10:33:45.052Z,99974.15
2023-05-04T10:36:11.748Z,99973.35
2023-05-04T10:38:39.647Z,99969.09
2023-05-04T10:41:16.696Z,99967.60
2023-05-04T10:43:48.679Z,99965.08
2023-05-04T10:46:22.790Z,99958.08
2023-05-04T10:48:50.185Z,99957.31
2023-05-04T10:51:21.027Z,99959.67
2023-05-04T10:53:48.112Z,99958.73
2023-05-04T10:56:25.292Z,99953.81
2023-05-04T10:58:52.658Z,99955.51
2023-05-04T11:01:19.801Z,99952.65
2023-05-04T11:03:47.088Z,99947.55
2023-05-04T11:06:23.929Z,99944.77
2023-05-04T11:09:01.574Z,99941.65
2023-05-04T11:11:28.266Z,99942.17
2023-05-04T11:13:54.918Z,99942.70
2023-05-04T11:16:25.707Z,99936.57
2023-05-04T11:18:53.614Z,99931.00
2023-05-04T11:21:26.950Z,99923.18
2023-05-04T11:23:57.915Z,99926.80
2023-05-04T11:26:24.925Z,99926.94
2023-05-04T11:28:51.657Z,99925.55
2023-05-04T11:31:19.482Z,99922.36
2023-05-04T11:33:49.695Z,99922.42
2023-05-04T11:36:16.640Z,99919.73
2023-05-04T11:38:43.861Z,99914.45
2023-05-04T11:41:10.788Z,99911.83
2023-05-04T11:43:37.920Z,99910.16
2023-05-04T11:46:04.730Z,99904.02
2023-05-04T11:48:32.468Z,99898.48
2023-05-04T11:50:59.189Z,99897.45
2023-05-04T11:53:26.355Z,99893.07
2023-05-04T11:55:57.390Z,99884.91
2023-05-04T11:58:25.508Z,99882.98
2023-05-04T12:00:56.981Z,99883.10
2023-05-04T12:03:32.637Z,99880.85
2023-05-04T12:06:07.366Z,99881.25
2023-05-04T12:08:42.198Z,99877.52
2023-05-04T12:11:26.154Z,99878.46
2023-05-04T12:15:48.919Z,99869.33
2023-05-04T12:18:23.156Z,99880.21
2023-05-04T12:20:49.906Z,99876.81
2023-05-04T12:23:16.580Z,99869.23
2023-05-04T12:25:54.719Z,99869.91
2023-05-04T12:28:31.378Z,99864.01
2023-05-04T12:31:01.796Z,99861.96
2023-05-04T12:33:28.869Z,99855.52
2023-05-04T12:35:55.816Z,99857.80
2023-05-04T12:38:22.572Z,99855.09
2023-05-04T12:40:49.268Z,99856.07
2023-05-04T12:43:16.016Z,99858.63
2023-05-04T12:45:42.837Z,99856.39
2023-05-04T12:48:09.494Z,99855.27
2023-05-04T12:50:36.266Z,99856.63
2023-05-04T12:53:04.337Z,99858.48
2023-05-04T12:55:34.059Z,99856.75
2023-05-04T12:58:00.779Z,99855.41
2023-05-04T13:00:27.433Z,99851.70
2023-05-04T13:02:54.393Z,99851.04
2023-05-04T13:05:23.061Z,99851.31
2023-05-04T13:07:49.767Z,99845.71
2023-05-04T13:10:16.920Z,99842.88
2023-05-04T13:12:46.086Z,99838.95
2023-05-04T13:15:13.468Z,99840.30
2023-05-04T13:17:40.416Z,99841.30
2023-05-04T13:20:08.925Z,99842.02
2023-05-04T13:22:35.869Z,99838.19
2023-05-04T13:25:02.591Z,99839.55
2023-05-04T13:27:29.567Z,99838.47
2023-05-04T13:29:58.676Z,99834.29
2023-05-04T13:32:27.595Z,99835.98
2023-05-04T13:34:54.533Z,99831.91
2023-05-04T13:37:21.227Z,99828.19
2023-05-04T13:39:47.996Z,99825.80
2023-05-04T13:42:14.799Z,99824.05
2023-05-04T13:44:45.636Z,99829.41
2023-05-04T13:47:16.616Z,99829.69
2023-05-04T13:49:43.354Z,99832.10
2023-05-04T13:52:10.045Z,99829.77
2023-05-04T13:54:37.371Z,99831.02
2023-05-04T13:57:04.541Z,99826.29
2023-05-04T13:59:31.262Z,99824.66
2023-05-04T14:01:57.903Z,99823.55
2023-05-04T14:04:24.674Z,99827.42
2023-05-04T14:06:51.746Z,99829.73
2023-05-04T14:09:19.498Z,99835.80
2023-05-04T14:11:47.563Z,99834.34
2023-05-04T14:14:14.713Z,99835.66
2023-05-04T14:16:41.952Z,99836.54
2023-05-04T14:19:08.854Z,99839.05
2023-05-04T14:21:35.997Z,99838.64
2023-05-04T14:24:03.562Z,99840.73
2023-05-04T14:26:31.758Z,99848.01
2023-05-04T14:28:58.650Z,99848.17
2023-05-04T14:31:25.368Z,99859.20
2023-05-04T14:33:52.394Z,99861.36
2023-05-04T14:36:20.018Z,99861.17
2023-05-04T14:38:48.046Z,99867.02
2023-05-04T14:41:15.326Z,99867.80
2023-05-04T14:43:42.320Z,99868.09
2023-05-04T14:46:09.738Z,99877.23
2023-05-04T14:48:37.070Z,99879.17
2023-05-04T14:51:03.910Z,99878.67
2023-05-04T14:53:35.720Z,99876.73
2023-05-04T14:56:03.812Z,99879.98
2023-05-04T14:58:30.595Z,99880.60
2023-05-04T15:00:57.473Z,99882.49
2023-05-04T15:03:26.217Z,99883.35
2023-05-04T15:05:53.038Z,99888.67
2023-05-04T15:08:19.697Z,99894.04
2023-05-04T15:10:46.501Z,99894.02
2023-05-04T15:13:15.757Z,99899.98
2023-05-04T15:15:43.044Z,99897.34
2023-05-04T15:18:10.013Z,99897.61
2023-05-04T15:20:38.529Z,99898.58
2023-05-04T15:23:10.644Z,99910.02
2023-05-04T15:25:41.146Z,99913.22
2023-05-04T15:28:11.162Z,99918.16
2023-05-04T15:30:38.828Z,99917.70
2023-05-04T15:33:05.832Z,99923.63
2023-05-04T15:35:36.142Z,99925.46
2023-05-04T15:38:03.180Z,99929.76
2023-05-04T15:40:29.959Z,99931.88
2023-05-04T15:42:56.652Z,99930.95
2023-05-04T15:45:23.435Z,99929.98
2023-05-04T15:47:50.365Z,99936.41
2023-05-04T15:50:17.223Z,99939.07
2023-05-04T15:52:43.954Z,99944.23
2023-05-04T15:55:24.431Z,99947.45
2023-05-04T15:57:52.804Z,99949.99
2023-05-04T16:00:20.997Z,99956.14
2023-05-04T16:02:47.854Z,99958.92
2023-05-04T16:05:14.798Z,99960.30
2023-05-04T16:07:41.930Z,99961.20
2023-05-04T16:10:12.346Z,99957.72
2023-05-04T16:12:41.273Z,99960.44
2023-05-04T16:15:11.098Z,99966.14
2023-05-04T16:17:37.924Z,99967.95
2023-05-04T16:20:05.455Z,99965.89
2023-05-04T16:22:32.548Z,99969.73
2023-05-04T16:24:59.198Z,99974.30
2023-05-04T16:27:29.049Z,99978.45
2023-05-04T16:29:56.190Z,99984.67
2023-05-04T16:32:23.236Z,99990.16
2023-05-04T16:34:49.963Z,99997.06
2023-05-04T16:37:18.511Z,99995.90
2023-05-04T16:39:45.706Z,99996.28
2023-05-04T16:42:12.671Z,100000.31
2023-05-04T16:44:39.591Z,100005.63
2023-05-04T16:47:07.183Z,100014.98
2023-05-04T16:49:34.012Z,100013.55
2023-05-04T16:52:02.018Z,100014.78
2023-05-04T16:54:28.754Z,100017.39
2023-05-04T16:56:55.496Z,100020.23
2023-05-04T16:59:22.422Z,100027.36
2023-05-04T17:01:49.279Z,100029.58
2023-05-04T17:04:16.346Z,100028.10
2023-05-04T17:06:43.159Z,100034.38
2023-05-04T17:09:09.949Z,100042.81
2023-05-04T17:11:36.717Z,100041.43
2023-05-04T17:14:03.703Z,100041.10
2023-05-04T17:16:30.651Z,100037.79
2023-05-04T17:18:57.407Z,100032.41
2023-05-04T17:21:24.090Z,100031.15
2023-05-04T17:23:51.212Z,100024.11
2023-05-04T17:26:18.678Z,100022.21
2023-05-04T17:28:45.662Z,100025.52
2023-05-04T17:31:12.614Z,100026.80
2023-05-04T17:33:39.437Z,100023.61
2023-05-04T17:36:07.846Z,100021.89
2023-05-04T17:38:34.592Z,100026.10
2023-05-04T17:41:01.379Z,100032.70
2023-05-04T17:43:28.168Z,100037.38
2023-05-04T17:45:55.915Z,100041.51
2023-05-04T17:48:24.227Z,100045.05
2023-05-04T17:50:51.432Z,100046.14
2023-05-04T17:53:18.169Z,100050.27
2023-05-04T17:55:44.987Z,100046.08
2023-05-04T17:58:11.716Z,100048.86
2023-05-04T18:00:38.378Z,100049.52
2023-05-04T18:03:05.335Z,100052.40
2023-05-04T18:05:32.171Z,100058.29
2023-05-04T18:07:59.155Z,100062.97
2023-05-04T18:10:26.176Z,100073.55
2023-05-04T18:12:52.975Z,100079.04
2023-05-04T18:15:19.839Z,100073.31
2023-05-04T18:17:46.619Z,100073.73
2023-05-04T18:20:13.587Z,100074.02
2023-05-04T18:22:41.175Z,100074.49
2023-05-04T18:25:08.500Z,100077.52
2023-05-04T18:27:35.454Z,100085.30
2023-05-04T18:30:03.452Z,100084.25
2023-05-04T18:32:30.124Z,100083.67
2023-05-04T18:34:58.070Z,100083.48
2023-05-04T18:37:24.979Z,100084.69
2023-05-04T18:39:51.720Z,100082.64
2023-05-04T18:42:18.405Z,100085.63
2023-05-04T18:44:45.029Z,100084.88
2023-05-04T18:47:11.996Z,100091.34
2023-05-04T18:49:38.736Z,100091.22
2023-05-04T18:52:05.674Z,100091.96
2023-05-04T18:54:32.863Z,100091.59
2023-05-04T18:56:59.513Z,100096.66
2023-05-04T18:59:26.215Z,100103.88
2023-05-04T19:01:55.627Z,100106.39
2023-05-04T19:04:22.281Z,100102.52
2023-05-04T19:06:51.781Z,100098.66
2023-05-04T19:09:18.881Z,100101.97
2023-05-04T19:11:46.824Z,100097.54
2023-05-04T19:14:13.701Z,100094.42
2023-05-04T19:16:40.710Z,100087.58
2023-05-04T19:19:07.610Z,100074.05
2023-05-04T19:21:34.302Z,100067.63
2023-05-04T19:24:00.997Z,100071.33
2023-05-04T19:26:27.684Z,100085.63
2023-05-04T19:28:54.354Z,100099.23
2023-05-04T19:31:21.206Z,100093.84
2023-05-04T19:33:49.599Z,100074.33
2023-05-04T19:36:17.131Z,100064.05
2023-05-04T19:38:44.120Z,100079.58
2023-05-04T19:41:11.229Z,100088.91
2023-05-04T19:43:39.037Z,100079.30
2023-05-04T19:46:06.164Z,100084.01
2023-05-04T19:48:32.990Z,100084.08
2023-05-04T19:50:59.752Z,100085.11
2023-05-04T19:53:26.774Z,100089.08
2023-05-04T19:55:53.665Z,100081.11
2023-05-04T19:58:21.910Z,100081.11
2023-05-04T20:00:48.936Z,100080.33
2023-05-04T20:03:17.055Z,100087.73
2023-05-04T20:05:43.880Z,100088.02
2023-05-04T20:08:10.814Z,100079.33
2023-05-04T20:10:37.522Z,100077.74
2023-05-04T20:13:05.596Z,100080.74
2023-05-04T20:15:32.385Z,100072.95
2023-05-04T20:17:59.315Z,100067.05
2023-05-04T20:20:26.776Z,100057.23
2023-05-04T20:22:53.627Z,100051.66
2023-05-04T20:25:20.308Z,100042.09
2023-05-04T20:27:48.701Z,100033.45
2023-05-04T20:30:15.668Z,100040.96
2023-05-04T20:32:44.041Z,100049.65
2023-05-04T20:35:10.975Z,100060.06
2023-05-04T20:37:37.646Z,100067.54
2023-05-04T20:40:05.099Z,100077.52
2023-05-04T20:42:32.926Z,100074.50
2023-05-04T20:44:59.595Z,100069.87
2023-05-04T20:47:26.702Z,100071.89
2023-05-04T20:49:53.377Z,100067.19
2023-05-04T20:52:20.188Z,100056.98
2023-05-04T20:54:46.843Z,100056.08
2023-05-04T20:57:13.533Z,100052.11
2023-05-04T20:59:40.503Z,100060.20
2023-05-04T21:02:08.074Z,100065.73
2023-05-04T21:04:34.749Z,100067.70
2023-05-04T21:07:01.423Z,100079.28
2023-05-04T21:09:28.214Z,100087.42
2023-05-04T21:11:55.068Z,100087.22
2023-05-04T21:14:21.875Z,100084.61
2023-05-04T21:16:48.562Z,100084.45
2023-05-04T21:19:15.398Z,100084.98
2023-05-04T21:21:42.969Z,100082.33
2023-05-04T21:24:12.277Z,100075.98
2023-05-04T21:26:39.285Z,100065.70
2023-05-04T21:29:05.965Z,100056.63
2023-05-04T21:31:34.746Z,100053.56
2023-05-04T21:34:02.137Z,100057.87
2023-05-04T21:36:29.355Z,100071.63
2023-05-04T21:38:56.215Z,100083.77
2023-05-04T21:41:22.862Z,100081.14
2023-05-04T21:43:49.587Z,100079.80
2023-05-04T21:46:16.364Z,100084.38
2023-05-04T21:48:43.152Z,100091.71
2023-05-04T21:51:10.383Z,100083.80
2023-05-04T21:53:37.116Z,100090.46
2023-05-04T21:56:08.392Z,100096.85
2023-05-04T21:58:43.384Z,100097.29
2023-05-04T22:01:14.844Z,100094.16
2023-05-04T22:03:41.581Z,100093.91
2023-05-04T22:06:08.554Z,100097.40
2023-05-04T22:08:35.476Z,100096.04
2023-05-04T22:11:02.189Z,100094.23
2023-05-04T22:13:28.873Z,100096.35
2023-05-04T22:15:55.733Z,100102.05
2023-05-04T22:18:22.698Z,100099.19
2023-05-04T22:20:49.446Z,100091.50
2023-05-04T22:23:16.178Z,100093.13
2023-05-04T22:25:43.050Z,100089.95
2023-05-04T22:28:09.708Z,100082.63
2023-05-04T22:30:36.373Z,100082.66
2023-05-04T22:33:03.345Z,100076.38
2023-05-04T22:35:31.707Z,100071.64
2023-05-04T22:37:58.480Z,100065.75
2023-05-04T22:40:25.360Z,100063.59
2023-05-04T22:42:52.202Z,100067.05
2023-05-04T22:45:18.976Z,100068.40
2023-05-04T22:47:47.010Z,100062.73
2023-05-04T22:50:14.297Z,100057.36
2023-05-04T22:52:41.272Z,100063.23
2023-05-04T22:55:08.802Z,100069.34
2023-05-04T22:57:35.791Z,100066.67
2023-05-04T23:00:04.403Z,100061.64
2023-05-04T23:02:31.276Z,100058.06
2023-05-04T23:04:58.034Z,100053.67
2023-05-04T23:07:24.677Z,100055.05
2023-05-04T23:09:51.368Z,100052.44
2023-05-04T23:12:18.086Z,100047.36
2023-05-04T23:14:44.771Z,100043.39
2023-05-04T23:17:11.499Z,100039.84
2023-05-04T23:19:38.095Z,100041.00
2023-05-04T23:22:04.715Z,100039.88
2023-05-04T23:24:31.379Z,100037.98
2023-05-04T23:26:58.989Z,100039.36
2023-05-04T23:29:25.784Z,100038.00
2023-05-04T23:31:53.607Z,100034.86
2023-05-04T23:34:20.363Z,100037.14
2023-05-04T23:36:46.986Z,100039.13
2023-05-04T23:39:13.619Z,100040.48
2023-05-04T23:41:40.265Z,100045.29
2023-05-04T23:44:07.075Z,100048.84
2023-05-04T23:46:33.752Z,100049.91
2023-05-04T23:49:00.502Z,100050.07
2023-05-04T23:51:28.542Z,100049.84
2023-05-04T23:53:55.883Z,100043.98
2023-05-04T23:56:22.658Z,100046.02
2023-05-04T23:58:49.506Z,100041.36
